sensor_id;sensor_type;location;lat;lon;timestamp;noise_LAeq;noise_LA_min;noise_LA_max;noise_LA01;noise_LA95
70245;Laerm;57637;49.272;8.590;2024-03-02T00:00:40;48.21;46.93;50.51;;
70245;Laerm;57637;49.272;8.590;2024-03-02T00:03:06;48.22;46.73;50.49;;
70245;Laerm;57637;49.272;8.590;2024-03-02T00:05:32;48.20;46.65;50.59;;
70245;Laerm;57637;49.272;8.590;2024-03-02T00:07:58;48.20;46.74;50.55;;
70245;Laerm;57637;49.272;8.590;2024-03-02T00:10:31;48.19;46.68;50.68;;
70245;Laerm;57637;49.272;8.590;2024-03-02T00:13:00;48.19;46.82;50.23;;
70245;Laerm;57637;49.272;8.590;2024-03-02T00:15:46;48.19;46.95;50.34;;
70245;Laerm;57637;49.272;8.590;2024-03-02T00:18:13;48.18;46.95;50.43;;
70245;Laerm;57637;49.272;8.590;2024-03-02T00:20:40;48.19;47.04;50.40;;
70245;Laerm;57637;49.272;8.590;2024-03-02T00:23:09;48.19;46.95;50.29;;
70245;Laerm;57637;49.272;8.590;2024-03-02T00:25:43;48.19;46.85;50.46;;
70245;Laerm;57637;49.272;8.590;2024-03-02T00:33:41;48.18;46.76;50.45;;
70245;Laerm;57637;49.272;8.590;2024-03-02T00:36:07;48.20;46.81;50.94;;
70245;Laerm;57637;49.272;8.590;2024-03-02T00:38:34;48.20;46.94;50.44;;
70245;Laerm;57637;49.272;8.590;2024-03-02T00:41:06;48.19;46.78;50.83;;
70245;Laerm;57637;49.272;8.590;2024-03-02T00:46:07;48.21;46.98;50.41;;
70245;Laerm;57637;49.272;8.590;2024-03-02T00:48:33;48.20;46.73;51.20;;
70245;Laerm;57637;49.272;8.590;2024-03-02T00:51:01;48.21;46.72;50.44;;
70245;Laerm;57637;49.272;8.590;2024-03-02T00:53:29;48.20;46.77;50.47;;
70245;Laerm;57637;49.272;8.590;2024-03-02T00:55:55;48.21;46.89;51.35;;
70245;Laerm;57637;49.272;8.590;2024-03-02T00:58:20;48.21;46.89;50.41;;
70245;Laerm;57637;49.272;8.590;2024-03-02T01:00:46;48.22;46.89;50.63;;
70245;Laerm;57637;49.272;8.590;2024-03-02T01:03:11;48.23;46.94;50.70;;
70245;Laerm;57637;49.272;8.590;2024-03-02T01:05:41;48.21;46.80;50.81;;
70245;Laerm;57637;49.272;8.590;2024-03-02T01:08:07;48.22;46.91;50.42;;
70245;Laerm;57637;49.272;8.590;2024-03-02T01:10:32;48.21;46.98;50.85;;
70245;Laerm;57637;49.272;8.590;2024-03-02T01:12:57;48.21;46.74;51.00;;
70245;Laerm;57637;49.272;8.590;2024-03-02T01:15:22;48.22;46.89;50.63;;
70245;Laerm;57637;49.272;8.590;2024-03-02T01:17:48;48.23;46.52;50.32;;
70245;Laerm;57637;49.272;8.590;2024-03-02T01:20:13;48.21;46.92;50.20;;
70245;Laerm;57637;49.272;8.590;2024-03-02T01:22:38;48.23;46.78;50.54;;
70245;Laerm;57637;49.272;8.590;2024-03-02T01:25:04;48.22;46.91;50.20;;
70245;Laerm;57637;49.272;8.590;2024-03-02T01:27:29;48.23;46.89;50.49;;
70245;Laerm;57637;49.272;8.590;2024-03-02T01:29:55;48.24;46.84;50.92;;
70245;Laerm;57637;49.272;8.590;2024-03-02T01:32:20;48.22;46.94;50.36;;
70245;Laerm;57637;49.272;8.590;2024-03-02T01:34:45;48.22;46.95;50.81;;
70245;Laerm;57637;49.272;8.590;2024-03-02T01:37:11;48.22;46.93;50.73;;
70245;Laerm;57637;49.272;8.590;2024-03-02T01:39:36;48.22;46.94;50.26;;
70245;Laerm;57637;49.272;8.590;2024-03-02T01:42:02;48.21;46.88;50.37;;
70245;Laerm;57637;49.272;8.590;2024-03-02T01:44:27;48.22;46.94;50.20;;
70245;Laerm;57637;49.272;8.590;2024-03-02T01:46:52;48.21;46.93;50.37;;
70245;Laerm;57637;49.272;8.590;2024-03-02T01:49:18;48.21;46.81;50.81;;
70245;Laerm;57637;49.272;8.590;2024-03-02T01:51:44;48.22;46.98;50.57;;
70245;Laerm;57637;49.272;8.590;2024-03-02T01:54:09;48.21;46.95;50.20;;
70245;Laerm;57637;49.272;8.590;2024-03-02T01:56:34;48.23;46.90;50.45;;
70245;Laerm;57637;49.272;8.590;2024-03-02T01:59:00;48.22;46.95;50.30;;
70245;Laerm;57637;49.272;8.590;2024-03-02T02:01:25;48.22;46.68;50.40;;
70245;Laerm;57637;49.272;8.590;2024-03-02T02:03:51;48.23;47.07;50.29;;
70245;Laerm;57637;49.272;8.590;2024-03-02T02:06:17;48.22;46.75;50.23;;
70245;Laerm;57637;49.272;8.590;2024-03-02T02:08:42;48.22;47.07;50.30;;
70245;Laerm;57637;49.272;8.590;2024-03-02T02:11:08;48.22;47.02;50.38;;
70245;Laerm;57637;49.272;8.590;2024-03-02T02:13:33;48.22;46.97;50.72;;
70245;Laerm;57637;49.272;8.590;2024-03-02T02:16:08;48.22;46.89;50.08;;
70245;Laerm;57637;49.272;8.590;2024-03-02T02:18:34;48.23;46.77;50.27;;
70245;Laerm;57637;49.272;8.590;2024-03-02T02:21:01;48.21;46.97;50.18;;
70245;Laerm;57637;49.272;8.590;2024-03-02T02:23:26;48.23;46.81;50.33;;
70245;Laerm;57637;49.272;8.590;2024-03-02T02:25:51;48.22;46.76;50.26;;
70245;Laerm;57637;49.272;8.590;2024-03-02T02:28:17;48.23;46.82;50.41;;
70245;Laerm;57637;49.272;8.590;2024-03-02T02:30:42;48.23;46.92;50.46;;
70245;Laerm;57637;49.272;8.590;2024-03-02T02:33:08;48.24;46.95;50.59;;
70245;Laerm;57637;49.272;8.590;2024-03-02T02:35:33;48.22;46.69;50.40;;
70245;Laerm;57637;49.272;8.590;2024-03-02T02:37:58;48.22;46.88;50.28;;
70245;Laerm;57637;49.272;8.590;2024-03-02T02:40:24;48.24;46.82;50.14;;
70245;Laerm;57637;49.272;8.590;2024-03-02T02:42:49;48.25;46.97;50.46;;
70245;Laerm;57637;49.272;8.590;2024-03-02T02:45:17;48.24;46.86;50.45;;
70245;Laerm;57637;49.272;8.590;2024-03-02T02:47:43;48.23;46.80;50.50;;
70245;Laerm;57637;49.272;8.590;2024-03-02T02:50:10;48.23;46.80;50.40;;
70245;Laerm;57637;49.272;8.590;2024-03-02T02:52:38;48.24;46.76;50.45;;
70245;Laerm;57637;49.272;8.590;2024-03-02T02:55:06;48.23;46.82;50.36;;
70245;Laerm;57637;49.272;8.590;2024-03-02T02:57:32;48.24;46.95;50.67;;
70245;Laerm;57637;49.272;8.590;2024-03-02T03:00:14;48.23;46.83;50.33;;
70245;Laerm;57637;49.272;8.590;2024-03-02T03:02:41;48.25;46.95;50.30;;
70245;Laerm;57637;49.272;8.590;2024-03-02T03:05:11;48.26;46.90;50.27;;
70245;Laerm;57637;49.272;8.590;2024-03-02T03:07:39;48.24;46.97;50.49;;
70245;Laerm;57637;49.272;8.590;2024-03-02T03:10:05;48.25;46.91;50.20;;
70245;Laerm;57637;49.272;8.590;2024-03-02T03:12:32;48.23;46.98;50.01;;
70245;Laerm;57637;49.272;8.590;2024-03-02T03:14:58;48.24;46.92;50.32;;
70245;Laerm;57637;49.272;8.590;2024-03-02T03:17:23;48.26;46.90;50.39;;
70245;Laerm;57637;49.272;8.590;2024-03-02T03:19:49;48.24;46.73;50.19;;
70245;Laerm;57637;49.272;8.590;2024-03-02T03:22:15;48.24;46.75;50.07;;
70245;Laerm;57637;49.272;8.590;2024-03-02T03:24:40;48.25;46.83;50.33;;
70245;Laerm;57637;49.272;8.590;2024-03-02T03:27:06;48.25;46.84;50.56;;
70245;Laerm;57637;49.272;8.590;2024-03-02T03:29:31;48.25;46.85;50.47;;
70245;Laerm;57637;49.272;8.590;2024-03-02T03:31:57;48.25;46.90;50.45;;
70245;Laerm;57637;49.272;8.590;2024-03-02T03:34:22;48.22;46.88;50.54;;
70245;Laerm;57637;49.272;8.590;2024-03-02T03:36:47;48.23;46.91;50.60;;
70245;Laerm;57637;49.272;8.590;2024-03-02T03:39:12;48.22;46.92;50.50;;
70245;Laerm;57637;49.272;8.590;2024-03-02T03:41:38;48.25;46.65;50.33;;
70245;Laerm;57637;49.272;8.590;2024-03-02T03:44:03;48.26;46.92;50.24;;
70245;Laerm;57637;49.272;8.590;2024-03-02T03:46:29;48.25;47.05;50.16;;
70245;Laerm;57637;49.272;8.590;2024-03-02T03:48:54;48.24;46.96;50.23;;
70245;Laerm;57637;49.272;8.590;2024-03-02T03:51:21;48.24;46.81;50.38;;
70245;Laerm;57637;49.272;8.590;2024-03-02T03:53:48;48.24;46.82;50.19;;
70245;Laerm;57637;49.272;8.590;2024-03-02T03:56:13;48.24;46.96;50.10;;
70245;Laerm;57637;49.272;8.590;2024-03-02T03:58:38;48.24;46.83;50.27;;
70245;Laerm;57637;49.272;8.590;2024-03-02T04:01:04;48.23;46.78;50.37;;
70245;Laerm;57637;49.272;8.590;2024-03-02T04:03:29;48.23;46.99;50.12;;
70245;Laerm;57637;49.272;8.590;2024-03-02T04:05:55;48.22;47.03;51.49;;
70245;Laerm;57637;49.272;8.590;2024-03-02T04:08:23;48.23;46.79;49.99;;
70245;Laerm;57637;49.272;8.590;2024-03-02T04:10:49;48.23;46.90;50.12;;
70245;Laerm;57637;49.272;8.590;2024-03-02T04:13:20;48.23;46.87;50.37;;
70245;Laerm;57637;49.272;8.590;2024-03-02T04:15:45;48.23;46.97;50.34;;
70245;Laerm;57637;49.272;8.590;2024-03-02T04:18:10;48.22;46.82;50.41;;
70245;Laerm;57637;49.272;8.590;2024-03-02T04:20:36;48.22;46.90;49.93;;
70245;Laerm;57637;49.272;8.590;2024-03-02T04:23:02;48.20;47.00;50.07;;
70245;Laerm;57637;49.272;8.590;2024-03-02T04:25:27;48.21;46.95;50.53;;
70245;Laerm;57637;49.272;8.590;2024-03-02T04:27:52;48.21;46.85;50.26;;
70245;Laerm;57637;49.272;8.590;2024-03-02T04:30:33;48.22;46.91;50.35;;
70245;Laerm;57637;49.272;8.590;2024-03-02T04:32:58;48.22;46.92;50.34;;
70245;Laerm;57637;49.272;8.590;2024-03-02T04:35:24;48.22;47.01;50.09;;
70245;Laerm;57637;49.272;8.590;2024-03-02T04:37:50;48.22;46.89;50.53;;
70245;Laerm;57637;49.272;8.590;2024-03-02T04:40:16;48.21;46.93;50.76;;
70245;Laerm;57637;49.272;8.590;2024-03-02T04:42:41;48.21;46.74;50.81;;
70245;Laerm;57637;49.272;8.590;2024-03-02T04:45:07;48.22;46.94;50.48;;
70245;Laerm;57637;49.272;8.590;2024-03-02T04:47:32;48.21;46.76;50.36;;
70245;Laerm;57637;49.272;8.590;2024-03-02T04:49:58;48.21;47.05;50.39;;
70245;Laerm;57637;49.272;8.590;2024-03-02T04:52:23;48.20;46.71;50.25;;
70245;Laerm;57637;49.272;8.590;2024-03-02T04:54:48;48.22;46.95;50.17;;
70245;Laerm;57637;49.272;8.590;2024-03-02T04:57:32;48.22;46.86;50.56;;
70245;Laerm;57637;49.272;8.590;2024-03-02T04:59:57;48.21;46.87;50.69;;
70245;Laerm;57637;49.272;8.590;2024-03-02T05:02:22;48.21;46.84;50.20;;
70245;Laerm;57637;49.272;8.590;2024-03-02T05:04:59;48.21;46.89;50.08;;
70245;Laerm;57637;49.272;8.590;2024-03-02T05:07:34;48.22;46.78;50.08;;
70245;Laerm;57637;49.272;8.590;2024-03-02T05:09:59;48.22;46.90;49.87;;
70245;Laerm;57637;49.272;8.590;2024-03-02T05:12:24;48.24;46.95;50.39;;
70245;Laerm;57637;49.272;8.590;2024-03-02T05:14:50;48.25;46.88;50.84;;
70245;Laerm;57637;49.272;8.590;2024-03-02T05:17:15;48.26;46.99;53.94;;
70245;Laerm;57637;49.272;8.590;2024-03-02T05:19:40;48.27;46.78;56.76;;
70245;Laerm;57637;49.272;8.590;2024-03-02T05:22:06;48.25;46.99;50.16;;
70245;Laerm;57637;49.272;8.590;2024-03-02T05:24:31;48.25;46.94;50.37;;
70245;Laerm;57637;49.272;8.590;2024-03-02T05:26:56;48.26;47.00;50.49;;
70245;Laerm;57637;49.272;8.590;2024-03-02T05:29:22;48.28;46.96;50.16;;
70245;Laerm;57637;49.272;8.590;2024-03-02T05:31:50;48.25;47.00;50.75;;
70245;Laerm;57637;49.272;8.590;2024-03-02T05:34:15;48.26;46.88;51.11;;
70245;Laerm;57637;49.272;8.590;2024-03-02T05:36:40;48.27;46.69;50.44;;
70245;Laerm;57637;49.272;8.590;2024-03-02T05:39:06;48.25;46.67;50.17;;
70245;Laerm;57637;49.272;8.590;2024-03-02T05:41:34;48.27;47.09;50.23;;
70245;Laerm;57637;49.272;8.590;2024-03-02T05:44:00;48.27;46.88;50.43;;
70245;Laerm;57637;49.272;8.590;2024-03-02T05:46:25;48.25;47.02;50.12;;
70245;Laerm;57637;49.272;8.590;2024-03-02T05:48:50;48.26;46.92;50.74;;
70245;Laerm;57637;49.272;8.590;2024-03-02T05:51:15;48.24;46.75;50.10;;
70245;Laerm;57637;49.272;8.590;2024-03-02T05:53:41;48.23;46.81;50.48;;
70245;Laerm;57637;49.272;8.590;2024-03-02T05:56:07;48.23;46.96;50.38;;
70245;Laerm;57637;49.272;8.590;2024-03-02T05:58:32;48.24;47.04;50.23;;
70245;Laerm;57637;49.272;8.590;2024-03-02T06:01:26;48.24;46.91;50.63;;
70245;Laerm;57637;49.272;8.590;2024-03-02T06:03:56;48.23;46.83;49.99;;
70245;Laerm;57637;49.272;8.590;2024-03-02T06:06:25;48.24;46.89;50.29;;
70245;Laerm;57637;49.272;8.590;2024-03-02T06:08:51;48.24;46.84;50.28;;
70245;Laerm;57637;49.272;8.590;2024-03-02T06:11:16;48.23;46.95;50.05;;
70245;Laerm;57637;49.272;8.590;2024-03-02T06:13:42;48.24;47.02;50.54;;
70245;Laerm;57637;49.272;8.590;2024-03-02T06:16:07;48.23;47.00;50.59;;
70245;Laerm;57637;49.272;8.590;2024-03-02T06:18:33;48.23;46.77;50.56;;
70245;Laerm;57637;49.272;8.590;2024-03-02T06:20:59;48.24;46.94;50.37;;
70245;Laerm;57637;49.272;8.590;2024-03-02T06:23:26;48.23;46.90;50.85;;
70245;Laerm;57637;49.272;8.590;2024-03-02T06:25:51;48.24;46.83;50.17;;
70245;Laerm;57637;49.272;8.590;2024-03-02T06:28:16;48.25;46.93;50.83;;
70245;Laerm;57637;49.272;8.590;2024-03-02T06:30:41;48.24;46.91;50.30;;
70245;Laerm;57637;49.272;8.590;2024-03-02T06:33:08;48.22;46.97;50.41;;
70245;Laerm;57637;49.272;8.590;2024-03-02T06:35:33;48.22;46.95;49.81;;
70245;Laerm;57637;49.272;8.590;2024-03-02T06:38:00;48.23;46.88;50.30;;
70245;Laerm;57637;49.272;8.590;2024-03-02T06:40:25;48.23;46.94;50.40;;
70245;Laerm;57637;49.272;8.590;2024-03-02T06:42:50;48.23;46.96;50.47;;
70245;Laerm;57637;49.272;8.590;2024-03-02T06:45:16;48.22;47.08;50.30;;
70245;Laerm;57637;49.272;8.590;2024-03-02T06:47:41;48.23;46.76;50.30;;
70245;Laerm;57637;49.272;8.590;2024-03-02T06:50:07;48.24;46.90;50.40;;
70245;Laerm;57637;49.272;8.590;2024-03-02T06:52:32;48.22;46.87;50.30;;
70245;Laerm;57637;49.272;8.590;2024-03-02T06:54:57;48.22;46.69;49.95;;
70245;Laerm;57637;49.272;8.590;2024-03-02T06:57:23;48.21;46.87;49.77;;
70245;Laerm;57637;49.272;8.590;2024-03-02T06:59:49;48.20;46.92;50.29;;
70245;Laerm;57637;49.272;8.590;2024-03-02T07:02:16;48.22;47.02;50.59;;
70245;Laerm;57637;49.272;8.590;2024-03-02T07:04:42;48.22;47.01;50.39;;
70245;Laerm;57637;49.272;8.590;2024-03-02T07:07:07;48.22;46.96;50.41;;
70245;Laerm;57637;49.272;8.590;2024-03-02T07:09:32;48.22;46.95;50.45;;
70245;Laerm;57637;49.272;8.590;2024-03-02T07:11:57;48.23;46.79;50.61;;
70245;Laerm;57637;49.272;8.590;2024-03-02T07:14:26;48.22;47.10;50.51;;
70245;Laerm;57637;49.272;8.590;2024-03-02T07:17:11;48.21;46.85;50.52;;
70245;Laerm;57637;49.272;8.590;2024-03-02T07:19:38;48.21;47.00;50.71;;
70245;Laerm;57637;49.272;8.590;2024-03-02T07:22:06;48.22;46.87;50.74;;
70245;Laerm;57637;49.272;8.590;2024-03-02T07:24:31;48.20;46.89;50.28;;
70245;Laerm;57637;49.272;8.590;2024-03-02T07:26:56;48.21;46.96;50.65;;
70245;Laerm;57637;49.272;8.590;2024-03-02T07:29:22;48.19;46.77;50.74;;
70245;Laerm;57637;49.272;8.590;2024-03-02T07:31:47;48.19;46.95;50.29;;
70245;Laerm;57637;49.272;8.590;2024-03-02T07:34:13;48.19;46.64;50.47;;
70245;Laerm;57637;49.272;8.590;2024-03-02T07:36:38;48.17;46.84;50.94;;
70245;Laerm;57637;49.272;8.590;2024-03-02T07:39:04;48.16;46.86;51.34;;
70245;Laerm;57637;49.272;8.590;2024-03-02T07:41:29;48.13;46.77;50.63;;
70245;Laerm;57637;49.272;8.590;2024-03-02T07:43:54;48.14;46.63;50.79;;
70245;Laerm;57637;49.272;8.590;2024-03-02T07:46:20;48.12;46.89;50.90;;
70245;Laerm;57637;49.272;8.590;2024-03-02T07:48:45;48.11;46.86;51.02;;
70245;Laerm;57637;49.272;8.590;2024-03-02T07:51:10;48.09;46.53;51.67;;
70245;Laerm;57637;49.272;8.590;2024-03-02T07:53:36;48.08;46.73;51.37;;
70245;Laerm;57637;49.272;8.590;2024-03-02T07:56:01;48.09;46.78;51.71;;
70245;Laerm;57637;49.272;8.590;2024-03-02T07:58:27;48.11;46.73;51.68;;
70245;Laerm;57637;49.272;8.590;2024-03-02T08:00:53;48.10;46.62;52.66;;
70245;Laerm;57637;49.272;8.590;2024-03-02T08:03:30;48.10;46.78;51.72;;
70245;Laerm;57637;49.272;8.590;2024-03-02T08:05:57;48.07;46.86;51.62;;
70245;Laerm;57637;49.272;8.590;2024-03-02T08:08:22;48.15;46.83;65.43;;
70245;Laerm;57637;49.272;8.590;2024-03-02T08:10:48;48.10;46.73;51.67;;
70245;Laerm;57637;49.272;8.590;2024-03-02T08:13:14;48.10;46.88;51.32;;
70245;Laerm;57637;49.272;8.590;2024-03-02T08:15:39;48.10;46.80;51.00;;
70245;Laerm;57637;49.272;8.590;2024-03-02T08:18:04;48.10;46.82;51.26;;
70245;Laerm;57637;49.272;8.590;2024-03-02T08:20:30;48.10;46.63;51.41;;
70245;Laerm;57637;49.272;8.590;2024-03-02T08:22:56;48.09;46.82;51.34;;
70245;Laerm;57637;49.272;8.590;2024-03-02T08:25:22;48.09;46.87;52.06;;
70245;Laerm;57637;49.272;8.590;2024-03-02T08:27:47;48.09;46.70;51.77;;
70245;Laerm;57637;49.272;8.590;2024-03-02T08:30:13;48.11;46.78;52.22;;
70245;Laerm;57637;49.272;8.590;2024-03-02T08:32:38;48.10;46.72;51.40;;
70245;Laerm;57637;49.272;8.590;2024-03-02T08:35:06;48.14;46.79;64.44;;
70245;Laerm;57637;49.272;8.590;2024-03-02T08:37:31;48.09;46.83;51.39;;
70245;Laerm;57637;49.272;8.590;2024-03-02T08:39:57;48.09;46.78;51.29;;
70245;Laerm;57637;49.272;8.590;2024-03-02T08:42:22;48.07;46.70;51.71;;
70245;Laerm;57637;49.272;8.590;2024-03-02T08:44:48;48.09;46.58;52.72;;
70245;Laerm;57637;49.272;8.590;2024-03-02T08:47:13;48.08;46.68;52.82;;
70245;Laerm;57637;49.272;8.590;2024-03-02T08:49:39;48.06;46.83;52.61;;
70245;Laerm;57637;49.272;8.590;2024-03-02T08:52:19;48.07;46.65;51.69;;
70245;Laerm;57637;49.272;8.590;2024-03-02T08:54:44;48.21;46.65;65.79;;
70245;Laerm;57637;49.272;8.590;2024-03-02T08:57:10;48.06;46.73;52.19;;
70245;Laerm;57637;49.272;8.590;2024-03-02T08:59:35;48.08;46.74;51.82;;
70245;Laerm;57637;49.272;8.590;2024-03-02T09:02:01;48.08;46.60;51.80;;
70245;Laerm;57637;49.272;8.590;2024-03-02T09:04:27;48.08;46.77;51.81;;
70245;Laerm;57637;49.272;8.590;2024-03-02T09:06:53;48.07;46.67;51.66;;
70245;Laerm;57637;49.272;8.590;2024-03-02T09:09:18;48.09;46.73;51.64;;
70245;Laerm;57637;49.272;8.590;2024-03-02T09:11:45;48.10;46.61;52.00;;
70245;Laerm;57637;49.272;8.590;2024-03-02T09:14:11;48.07;46.76;51.97;;
70245;Laerm;57637;49.272;8.590;2024-03-02T09:17:01;48.07;46.77;51.94;;
70245;Laerm;57637;49.272;8.590;2024-03-02T09:19:27;48.08;46.76;51.86;;
70245;Laerm;57637;49.272;8.590;2024-03-02T09:21:52;48.07;46.71;51.78;;
70245;Laerm;57637;49.272;8.590;2024-03-02T09:24:20;48.07;46.71;52.44;;
70245;Laerm;57637;49.272;8.590;2024-03-02T09:26:46;48.06;46.72;51.92;;
70245;Laerm;57637;49.272;8.590;2024-03-02T09:29:11;48.05;46.58;52.15;;
70245;Laerm;57637;49.272;8.590;2024-03-02T09:31:40;48.05;46.75;52.74;;
70245;Laerm;57637;49.272;8.590;2024-03-02T09:34:06;48.08;46.78;52.21;;
70245;Laerm;57637;49.272;8.590;2024-03-02T09:36:32;48.08;46.66;52.45;;
70245;Laerm;57637;49.272;8.590;2024-03-02T09:38:57;48.06;46.80;52.87;;
70245;Laerm;57637;49.272;8.590;2024-03-02T09:41:23;48.04;46.69;52.11;;
70245;Laerm;57637;49.272;8.590;2024-03-02T09:43:48;48.07;46.75;52.45;;
70245;Laerm;57637;49.272;8.590;2024-03-02T09:46:15;48.06;46.76;52.70;;
70245;Laerm;57637;49.272;8.590;2024-03-02T09:48:46;48.06;46.74;53.51;;
70245;Laerm;57637;49.272;8.590;2024-03-02T09:51:11;48.05;46.67;52.12;;
70245;Laerm;57637;49.272;8.590;2024-03-02T09:53:40;48.13;46.48;66.61;;
70245;Laerm;57637;49.272;8.590;2024-03-02T09:56:30;48.06;46.65;53.49;;
70245;Laerm;57637;49.272;8.590;2024-03-02T09:58:56;48.03;46.71;52.65;;
70245;Laerm;57637;49.272;8.590;2024-03-02T10:01:21;48.05;46.76;52.10;;
70245;Laerm;57637;49.272;8.590;2024-03-02T10:03:47;48.11;46.72;60.60;;
70245;Laerm;57637;49.272;8.590;2024-03-02T10:06:33;48.11;46.66;54.19;;
70245;Laerm;57637;49.272;8.590;2024-03-02T10:08:58;48.13;46.53;52.43;;
70245;Laerm;57637;49.272;8.590;2024-03-02T10:11:28;48.22;46.64;52.36;;
70245;Laerm;57637;49.272;8.590;2024-03-02T10:16:36;48.15;46.61;67.24;;
70245;Laerm;57637;49.272;8.590;2024-03-02T10:19:15;48.07;46.66;53.35;;
70245;Laerm;57637;49.272;8.590;2024-03-02T10:21:42;48.15;46.72;53.71;;
70245;Laerm;57637;49.272;8.590;2024-03-02T10:24:08;48.17;46.75;53.06;;
70245;Laerm;57637;49.272;8.590;2024-03-02T10:26:33;48.12;46.71;52.97;;
70245;Laerm;57637;49.272;8.590;2024-03-02T10:28:58;48.11;46.52;53.43;;
70245;Laerm;57637;49.272;8.590;2024-03-02T10:31:25;48.04;46.57;52.41;;
70245;Laerm;57637;49.272;8.590;2024-03-02T10:33:54;48.07;46.52;52.76;;
70245;Laerm;57637;49.272;8.590;2024-03-02T10:36:20;48.12;46.37;53.45;;
70245;Laerm;57637;49.272;8.590;2024-03-02T10:38:45;48.22;46.59;60.51;;
70245;Laerm;57637;49.272;8.590;2024-03-02T10:41:17;48.14;46.68;53.70;;
70245;Laerm;57637;49.272;8.590;2024-03-02T10:43:43;48.04;46.48;52.82;;
70245;Laerm;57637;49.272;8.590;2024-03-02T10:46:09;48.10;46.68;54.17;;
70245;Laerm;57637;49.272;8.590;2024-03-02T10:48:53;48.05;46.48;52.69;;
70245;Laerm;57637;49.272;8.590;2024-03-02T10:51:25;48.03;46.67;56.61;;
70245;Laerm;57637;49.272;8.590;2024-03-02T10:53:52;48.02;46.69;53.71;;
70245;Laerm;57637;49.272;8.590;2024-03-02T10:56:30;48.14;46.73;53.78;;
70245;Laerm;57637;49.272;8.590;2024-03-02T11:01:43;48.27;46.65;53.35;;
70245;Laerm;57637;49.272;8.590;2024-03-02T11:04:09;48.28;46.50;53.67;;
70245;Laerm;57637;49.272;8.590;2024-03-02T11:06:37;48.42;46.71;53.54;;
70245;Laerm;57637;49.272;8.590;2024-03-02T11:09:07;48.40;46.48;53.36;;
70245;Laerm;57637;49.272;8.590;2024-03-02T11:11:40;48.35;46.62;53.28;;
70245;Laerm;57637;49.272;8.590;2024-03-02T11:14:14;48.36;46.57;53.54;;
70245;Laerm;57637;49.272;8.590;2024-03-02T11:16:42;48.41;46.41;54.44;;
70245;Laerm;57637;49.272;8.590;2024-03-02T11:19:15;48.44;46.52;54.67;;
70245;Laerm;57637;49.272;8.590;2024-03-02T11:21:42;48.47;46.64;53.11;;
70245;Laerm;57637;49.272;8.590;2024-03-02T11:26:51;48.70;46.62;52.05;;
70245;Laerm;57637;49.272;8.590;2024-03-02T11:32:00;48.70;46.59;52.82;;
70245;Laerm;57637;49.272;8.590;2024-03-02T11:34:30;48.77;46.64;54.47;;
70245;Laerm;57637;49.272;8.590;2024-03-02T11:36:56;48.71;46.75;52.96;;
70245;Laerm;57637;49.272;8.590;2024-03-02T11:39:25;48.59;46.66;52.94;;
70245;Laerm;57637;49.272;8.590;2024-03-02T11:41:51;48.75;46.48;66.11;;
70245;Laerm;57637;49.272;8.590;2024-03-02T11:44:16;48.78;46.79;52.27;;
70245;Laerm;57637;49.272;8.590;2024-03-02T11:46:45;48.78;46.82;52.42;;
70245;Laerm;57637;49.272;8.590;2024-03-02T11:49:14;48.78;46.67;52.10;;
70245;Laerm;57637;49.272;8.590;2024-03-02T11:51:51;48.75;46.76;59.50;;
70245;Laerm;57637;49.272;8.590;2024-03-02T11:54:18;48.73;46.79;60.03;;
70245;Laerm;57637;49.272;8.590;2024-03-02T11:56:43;48.26;46.57;60.91;;
70245;Laerm;57637;49.272;8.590;2024-03-02T11:59:09;47.97;46.42;51.45;;
70245;Laerm;57637;49.272;8.590;2024-03-02T12:01:35;47.93;46.71;52.75;;
70245;Laerm;57637;49.272;8.590;2024-03-02T12:04:01;47.96;46.47;52.08;;
70245;Laerm;57637;49.272;8.590;2024-03-02T12:06:27;48.00;46.77;51.23;;
70245;Laerm;57637;49.272;8.590;2024-03-02T12:09:11;47.98;46.80;52.38;;
70245;Laerm;57637;49.272;8.590;2024-03-02T12:11:37;47.97;46.36;51.62;;
70245;Laerm;57637;49.272;8.590;2024-03-02T12:14:02;47.99;46.79;50.45;;
70245;Laerm;57637;49.272;8.590;2024-03-02T12:16:29;48.01;46.78;52.12;;
70245;Laerm;57637;49.272;8.590;2024-03-02T12:18:54;48.02;46.59;53.78;;
70245;Laerm;57637;49.272;8.590;2024-03-02T12:21:20;48.00;46.67;51.66;;
70245;Laerm;57637;49.272;8.590;2024-03-02T12:24:13;48.01;46.75;60.59;;
70245;Laerm;57637;49.272;8.590;2024-03-02T12:26:39;47.97;46.56;57.53;;
70245;Laerm;57637;49.272;8.590;2024-03-02T12:29:04;47.98;46.74;51.97;;
70245;Laerm;57637;49.272;8.590;2024-03-02T12:31:30;47.98;46.63;52.34;;
70245;Laerm;57637;49.272;8.590;2024-03-02T12:33:55;47.98;46.71;58.31;;
70245;Laerm;57637;49.272;8.590;2024-03-02T12:36:21;48.02;46.50;52.70;;
70245;Laerm;57637;49.272;8.590;2024-03-02T12:38:47;48.06;46.77;53.87;;
70245;Laerm;57637;49.272;8.590;2024-03-02T12:41:16;48.01;46.81;54.01;;
70245;Laerm;57637;49.272;8.590;2024-03-02T12:43:41;47.98;46.79;52.60;;
70245;Laerm;57637;49.272;8.590;2024-03-02T12:46:07;47.98;46.74;53.22;;
70245;Laerm;57637;49.272;8.590;2024-03-02T12:48:32;47.98;46.81;56.96;;
70245;Laerm;57637;49.272;8.590;2024-03-02T12:50:58;47.98;46.66;53.01;;
70245;Laerm;57637;49.272;8.590;2024-03-02T12:53:23;47.97;46.66;52.91;;
70245;Laerm;57637;49.272;8.590;2024-03-02T12:55:50;47.99;46.62;51.71;;
70245;Laerm;57637;49.272;8.590;2024-03-02T12:58:22;48.01;46.64;61.64;;
70245;Laerm;57637;49.272;8.590;2024-03-02T13:00:48;47.99;46.75;53.71;;
70245;Laerm;57637;49.272;8.590;2024-03-02T13:03:13;48.00;46.65;53.73;;
70245;Laerm;57637;49.272;8.590;2024-03-02T13:05:39;47.99;46.38;50.79;;
70245;Laerm;57637;49.272;8.590;2024-03-02T13:08:06;47.97;46.51;50.09;;
70245;Laerm;57637;49.272;8.590;2024-03-02T13:10:32;47.97;46.40;49.96;;
70245;Laerm;57637;49.272;8.590;2024-03-02T13:12:58;47.98;46.61;50.19;;
70245;Laerm;57637;49.272;8.590;2024-03-02T13:15:26;48.00;46.56;50.45;;
70245;Laerm;57637;49.272;8.590;2024-03-02T13:18:18;47.99;46.67;51.38;;
70245;Laerm;57637;49.272;8.590;2024-03-02T13:20:44;48.05;46.71;51.23;;
70245;Laerm;57637;49.272;8.590;2024-03-02T13:23:28;47.98;46.70;50.68;;
70245;Laerm;57637;49.272;8.590;2024-03-02T13:25:56;47.95;46.58;50.81;;
70245;Laerm;57637;49.272;8.590;2024-03-02T13:28:23;47.99;46.64;51.97;;
70245;Laerm;57637;49.272;8.590;2024-03-02T13:30:48;47.99;46.69;52.37;;
70245;Laerm;57637;49.272;8.590;2024-03-02T13:33:13;47.99;46.74;50.88;;
70245;Laerm;57637;49.272;8.590;2024-03-02T13:35:40;48.00;46.56;50.72;;
70245;Laerm;57637;49.272;8.590;2024-03-02T13:38:05;47.99;46.60;51.70;;
70245;Laerm;57637;49.272;8.590;2024-03-02T13:40:30;48.01;46.45;50.25;;
70245;Laerm;57637;49.272;8.590;2024-03-02T13:43:00;47.99;46.48;50.51;;
70245;Laerm;57637;49.272;8.590;2024-03-02T13:45:25;47.96;46.56;50.94;;
70245;Laerm;57637;49.272;8.590;2024-03-02T13:47:54;47.99;46.61;51.46;;
70245;Laerm;57637;49.272;8.590;2024-03-02T13:50:41;47.94;46.65;51.57;;
70245;Laerm;57637;49.272;8.590;2024-03-02T13:53:06;47.93;46.67;50.57;;
70245;Laerm;57637;49.272;8.590;2024-03-02T13:55:32;48.15;46.62;58.04;;
70245;Laerm;57637;49.272;8.590;2024-03-02T13:57:58;47.81;46.56;51.38;;
70245;Laerm;57637;49.272;8.590;2024-03-02T14:00:24;47.84;46.48;51.69;;
70245;Laerm;57637;49.272;8.590;2024-03-02T14:03:02;47.92;46.50;51.52;;